createdAt,value
2023-02-19T00:01:08.205Z,12.46
2023-02-19T00:06:06.894Z,12.58
2023-02-19T00:11:08.152Z,12.69
2023-02-19T00:16:08.608Z,12.81
2023-02-19T00:21:06.853Z,12.93
2023-02-19T00:26:17.569Z,12.93
2023-02-19T00:31:18.568Z,13.09
2023-02-19T00:36:15.567Z,13.09
2023-02-19T00:41:19.303Z,12.95
2023-02-19T00:46:17.250Z,13.15
2023-02-19T00:51:14.392Z,13.28
2023-02-19T00:56:16.486Z,13.22
2023-02-19T01:01:13.949Z,13.09
2023-02-19T01:06:11.324Z,13.18
2023-02-19T01:11:08.594Z,13.02
2023-02-19T01:16:06.177Z,13.07
2023-02-19T01:21:06.524Z,12.92
2023-02-19T01:26:04.399Z,12.57
2023-02-19T01:31:02.257Z,12.24
2023-02-19T01:35:59.316Z,12.25
2023-02-19T01:40:56.986Z,12.26
2023-02-19T01:45:53.740Z,12.15
2023-02-19T01:50:53.881Z,12.25
2023-02-19T01:55:52.758Z,12.34
2023-02-19T02:00:51.223Z,12.14
2023-02-19T02:05:51.801Z,12.08
2023-02-19T02:10:49.893Z,11.87
2023-02-19T02:15:50.853Z,11.66
2023-02-19T02:20:58.215Z,11.70
2023-02-19T02:26:08.575Z,12.00
2023-02-19T02:31:08.900Z,11.86
2023-02-19T02:36:08.008Z,11.64
2023-02-19T02:41:06.008Z,11.53
2023-02-19T02:46:02.852Z,11.68
2023-02-19T02:51:08.632Z,11.67
2023-02-19T02:56:12.410Z,11.58
2023-02-19T03:01:28.988Z,11.61
2023-02-19T03:06:28.691Z,11.65
2023-02-19T03:11:43.699Z,11.50
2023-02-19T03:17:01.518Z,11.52
2023-02-19T03:22:00.435Z,11.56
2023-02-19T03:26:59.259Z,11.53
2023-02-19T03:32:02.265Z,11.29
2023-02-19T03:37:06.674Z,11.36
2023-02-19T03:42:08.792Z,11.28
2023-02-19T03:47:09.921Z,11.38
2023-02-19T03:52:11.416Z,11.15
2023-02-19T03:57:14.114Z,11.18
2023-02-19T04:02:13.553Z,11.09
2023-02-19T04:07:11.587Z,11.10
2023-02-19T04:12:10.926Z,10.81
2023-02-19T04:17:10.873Z,10.60
2023-02-19T04:22:07.822Z,10.61
2023-02-19T04:27:05.996Z,10.78
2023-02-19T04:32:02.776Z,10.75
2023-02-19T04:36:59.671Z,10.85
2023-02-19T04:41:57.661Z,10.91
2023-02-19T04:46:55.275Z,10.84
2023-02-19T04:51:51.917Z,10.74
2023-02-19T04:56:50.108Z,10.71
2023-02-19T05:01:49.699Z,10.72
2023-02-19T05:06:46.938Z,10.52
2023-02-19T05:11:43.472Z,10.50
2023-02-19T05:16:40.046Z,10.20
2023-02-19T05:21:36.658Z,10.19
2023-02-19T05:26:34.149Z,10.24
2023-02-19T05:31:33.412Z,10.02
2023-02-19T05:36:30.536Z,10.32
2023-02-19T05:41:27.933Z,10.23
2023-02-19T05:46:27.366Z,10.20
2023-02-19T05:51:25.105Z,10.32
2023-02-19T05:56:28.413Z,10.45
2023-02-19T06:01:26.742Z,10.31
2023-02-19T06:06:23.769Z,10.06
2023-02-19T06:11:22.364Z,10.16
2023-02-19T06:16:19.212Z,9.97
2023-02-19T06:21:17.123Z,10.11
2023-02-19T06:26:15.216Z,9.98
2023-02-19T06:31:17.468Z,10.02
2023-02-19T06:36:15.899Z,10.12
2023-02-19T06:41:13.986Z,10.08
2023-02-19T06:46:11.611Z,10.24
2023-02-19T06:51:11.340Z,10.36
2023-02-19T06:56:21.681Z,10.60
2023-02-19T07:01:29.897Z,10.76
2023-02-19T07:06:27.265Z,10.87
2023-02-19T07:11:24.744Z,11.28
2023-02-19T07:16:22.734Z,11.38
2023-02-19T07:21:22.045Z,11.45
2023-02-19T07:26:19.303Z,11.37
2023-02-19T07:31:16.956Z,11.45
2023-02-19T07:36:14.937Z,11.57
2023-02-19T07:41:14.511Z,11.65
2023-02-19T07:46:13.083Z,11.81
2023-02-19T07:51:12.035Z,11.99
2023-02-19T07:56:14.364Z,12.28
2023-02-19T08:01:18.128Z,12.41
2023-02-19T08:06:18.324Z,12.48
2023-02-19T08:11:34.278Z,12.58
2023-02-19T08:16:42.550Z,12.62
2023-02-19T08:21:39.881Z,12.75
2023-02-19T08:26:52.544Z,12.83
2023-02-19T08:31:52.306Z,13.07
2023-02-19T08:36:49.331Z,13.25
2023-02-19T08:41:47.329Z,13.39
2023-02-19T08:46:43.969Z,13.42
2023-02-19T08:51:40.687Z,13.54
2023-02-19T08:56:40.305Z,13.65
2023-02-19T09:01:37.790Z,13.69
2023-02-19T09:06:34.493Z,13.79
2023-02-19T09:11:31.258Z,13.80
2023-02-19T09:16:28.292Z,13.88
2023-02-19T09:21:28.972Z,14.02
2023-02-19T09:26:28.595Z,14.13
2023-02-19T09:31:25.701Z,14.46
2023-02-19T09:36:23.272Z,14.64
2023-02-19T09:41:24.169Z,14.62
2023-02-19T09:46:27.864Z,14.70
2023-02-19T09:51:27.061Z,14.83
2023-02-19T09:56:25.771Z,14.89
2023-02-19T10:01:27.015Z,14.97
2023-02-19T10:06:27.162Z,15.13
2023-02-19T10:11:25.355Z,15.13
2023-02-19T10:16:24.667Z,15.30
2023-02-19T10:21:22.608Z,15.36
2023-02-19T10:26:19.487Z,15.55
2023-02-19T10:31:20.373Z,15.82
2023-02-19T10:36:25.362Z,16.04
2023-02-19T10:41:27.238Z,15.92
2023-02-19T10:46:27.149Z,16.08
2023-02-19T10:51:30.702Z,16.28
2023-02-19T10:56:29.435Z,16.23
2023-02-19T11:01:31.397Z,16.43
2023-02-19T11:06:28.245Z,16.33
2023-02-19T11:11:27.133Z,16.25
2023-02-19T11:16:24.411Z,16.26
2023-02-19T11:21:29.197Z,16.23
2023-02-19T11:26:27.188Z,16.37
2023-02-19T11:31:25.554Z,16.33
2023-02-19T11:36:30.490Z,16.31
2023-02-19T11:41:45.053Z,16.30
2023-02-19T11:46:46.862Z,16.31
2023-02-19T11:51:53.212Z,16.23
2023-02-19T11:57:02.689Z,16.17
2023-02-19T12:02:18.491Z,16.13
2023-02-19T12:07:22.207Z,16.21
2023-02-19T12:12:31.427Z,16.34
2023-02-19T12:17:46.076Z,16.41
2023-02-19T12:22:53.432Z,16.51
2023-02-19T12:27:58.820Z,16.60
2023-02-19T12:33:11.046Z,16.53
2023-02-19T12:38:18.214Z,16.53
2023-02-19T12:43:17.891Z,16.56
2023-02-19T12:48:18.880Z,16.50
2023-02-19T12:53:23.746Z,16.47
2023-02-19T12:58:24.072Z,16.69
2023-02-19T13:03:23.786Z,16.70
2023-02-19T13:08:24.286Z,16.62
2023-02-19T13:13:24.002Z,16.50
2023-02-19T13:18:24.068Z,16.71
2023-02-19T13:23:42.295Z,16.64
2023-02-19T13:28:44.895Z,16.49
2023-02-19T13:33:47.443Z,16.45
2023-02-19T13:38:47.312Z,16.73
2023-02-19T13:44:18.462Z,16.63
2023-02-19T13:50:07.058Z,16.79
2023-02-19T13:55:25.654Z,16.74
2023-02-19T14:00:49.386Z,16.78
2023-02-19T14:06:01.023Z,16.81
2023-02-19T14:11:01.757Z,16.74
2023-02-19T14:15:59.353Z,16.72
2023-02-19T14:21:07.156Z,16.79
2023-02-19T14:26:06.906Z,16.62
2023-02-19T14:31:09.708Z,16.55
2023-02-19T14:36:14.316Z,16.59
2023-02-19T14:41:13.013Z,16.62
2023-02-19T14:46:15.658Z,16.72
2023-02-19T14:51:13.963Z,16.68
2023-02-19T14:56:18.442Z,16.40
2023-02-19T15:01:28.440Z,16.66
2023-02-19T15:06:25.876Z,16.61
2023-02-19T15:11:23.738Z,16.67
2023-02-19T15:16:24.185Z,16.55
2023-02-19T15:21:25.679Z,16.44
2023-02-19T15:26:23.414Z,16.31
2023-02-19T15:31:20.285Z,16.30
2023-02-19T15:36:20.617Z,16.26
2023-02-19T15:41:19.914Z,16.20
2023-02-19T15:46:19.320Z,16.22
2023-02-19T15:51:18.416Z,16.21
2023-02-19T15:56:18.306Z,16.19
2023-02-19T16:01:19.516Z,16.17
2023-02-19T16:06:17.254Z,16.16
2023-02-19T16:11:27.378Z,16.12
2023-02-19T16:16:29.266Z,16.01
2023-02-19T16:21:27.203Z,16.19
2023-02-19T16:26:23.942Z,16.07
2023-02-19T16:31:21.833Z,16.12
2023-02-19T16:36:21.248Z,15.95
2023-02-19T16:41:21.014Z,15.86
2023-02-19T16:46:17.832Z,15.82
2023-02-19T16:51:29.696Z,15.83
2023-02-19T16:56:26.699Z,15.87
2023-02-19T17:01:23.616Z,15.68
2023-02-19T17:06:23.242Z,15.87
2023-02-19T17:11:28.540Z,15.58
2023-02-19T17:16:39.003Z,15.54
2023-02-19T17:21:35.919Z,15.48
2023-02-19T17:26:33.348Z,15.63
2023-02-19T17:31:30.145Z,15.60
2023-02-19T17:36:30.095Z,15.46
2023-02-19T17:41:26.844Z,15.62
2023-02-19T17:46:25.168Z,15.33
2023-02-19T17:51:22.093Z,15.50
2023-02-19T17:56:19.681Z,15.62
2023-02-19T18:01:16.527Z,15.48
2023-02-19T18:06:14.062Z,15.43
2023-02-19T18:11:11.083Z,15.55
2023-02-19T18:16:09.367Z,15.31
2023-02-19T18:21:08.088Z,15.30
2023-02-19T18:26:10.407Z,14.83
2023-02-19T18:31:07.478Z,14.86
2023-02-19T18:36:09.608Z,14.90
2023-02-19T18:41:06.319Z,15.09
2023-02-19T18:46:06.726Z,14.89
2023-02-19T18:51:03.669Z,14.93
2023-02-19T18:56:01.592Z,14.94
2023-02-19T19:00:58.725Z,14.83
2023-02-19T19:05:56.360Z,14.92
2023-02-19T19:10:53.167Z,14.93
2023-02-19T19:15:50.428Z,14.84
2023-02-19T19:20:47.122Z,14.69
2023-02-19T19:25:44.423Z,14.78
2023-02-19T19:30:41.502Z,14.74
2023-02-19T19:35:38.684Z,14.74
2023-02-19T19:40:35.589Z,14.76
2023-02-19T19:45:34.684Z,14.80
2023-02-19T19:50:34.805Z,14.73
2023-02-19T19:55:35.347Z,14.74
2023-02-19T20:00:34.157Z,14.71
2023-02-19T20:05:31.271Z,14.52
2023-02-19T20:10:28.304Z,14.35
2023-02-19T20:15:27.258Z,14.24
2023-02-19T20:20:24.800Z,14.23
2023-02-19T20:25:22.154Z,14.33
2023-02-19T20:30:22.142Z,14.32
2023-02-19T20:35:22.017Z,14.24
2023-02-19T20:40:19.485Z,14.14
2023-02-19T20:45:16.458Z,14.09
2023-02-19T20:50:13.319Z,14.31
2023-02-19T20:55:10.337Z,14.17
2023-02-19T21:00:08.880Z,14.02
2023-02-19T21:05:11.433Z,13.92
2023-02-19T21:10:10.456Z,13.82
2023-02-19T21:15:08.803Z,13.94
2023-02-19T21:20:06.248Z,13.89
2023-02-19T21:25:03.069Z,14.08
2023-02-19T21:29:59.938Z,13.96
2023-02-19T21:35:00.590Z,14.10
2023-02-19T21:39:59.774Z,13.93
2023-02-19T21:44:58.328Z,13.82
2023-02-19T21:49:55.087Z,13.58
2023-02-19T21:54:52.993Z,13.74
2023-02-19T21:59:50.214Z,13.84
2023-02-19T22:04:53.208Z,13.61
2023-02-19T22:09:50.510Z,13.65
2023-02-19T22:14:47.792Z,13.65
2023-02-19T22:19:46.524Z,13.51
2023-02-19T22:24:43.222Z,13.53
2023-02-19T22:29:39.941Z,13.40
2023-02-19T22:34:40.444Z,13.35
2023-02-19T22:39:37.544Z,13.15
2023-02-19T22:44:34.794Z,13.23
2023-02-19T22:49:31.428Z,13.01
2023-02-19T22:54:28.959Z,13.14
2023-02-19T22:59:25.621Z,13.08
2023-02-19T23:04:23.332Z,13.23
2023-02-19T23:09:21.712Z,13.07
2023-02-19T23:14:19.819Z,13.10
2023-02-19T23:19:16.450Z,13.08
2023-02-19T23:24:13.938Z,12.99
2023-02-19T23:29:10.959Z,13.02
2023-02-19T23:34:10.520Z,12.87
2023-02-19T23:39:07.494Z,12.70
2023-02-19T23:44:04.243Z,12.61
2023-02-19T23:49:00.864Z,12.46
2023-02-19T23:53:58.117Z,12.22
2023-02-19T23:58:54.806Z,12.04
